Hlavní strana
METAR-TAF:

METAR-TAF

Letiště :

Piggs Peak, Svazijsko

zeměpisná šířka: 25-58-04S, zeměpisná délka: 31-15-03E, výška: 1099 m

Aktuální stav počasí

Zpráva byla vytvořena před 49 minutami, v 10:00 UTC
Jihojihozápadní vítr 4 kt
Teplota 7°C
Vlhkost vzduchu 100%
Tlak 1021 hPa

METAR: FDPP 101000Z AUTO 21004KT //// // ////// 07/07 Q1021

Čas: 12:49 (10:49 UTC)


TAF: chybějící

Stav a předpovědi počasí z více než 4 000 letišť (zprávy METAR a TAF).

Červené a žluté tečky na mapě představují dostupné meteorologické stanice.

Když kurzor umístíte na tečku, zobrazí se název stanice.

Pak kliknutím zobrazíte stav a předpověď počasí.

Chcete-li změnit mapu, kliknutím na zelené tlačítko se znaménkem +mapu přiblížíte, kliknutím na zelené tlačítko se znaménkem – mapu oddálíte a kliknutím na zelené šipky přejdete na sousední mapy.


METAR-TAF: